Time;durP1;ratioP1;P1;durP2;ratioP2;P2;SDS_P1;SDS_P2;PMS_P1;PMS_P2;Temp;Humidity;BMP_temperature;BMP_pressure;BME280_temperature;BME280_humidity;BME280_pressure;Samples;Min_cycle;Max_cycle;Signal;HPM_P1;HPM_P2
2023/11/11 00:01:05;;;;;;;5.72;1.50;;;8.20;99.90;;;;;;4939811;28;20049;-76
2023/11/11 00:03:51;;;;;;;5.03;1.58;;;8.20;99.90;;;;;;4950197;28;20058;-76
2023/11/11 00:06:37;;;;;;;4.07;1.20;;;8.20;99.90;;;;;;4950515;28;20039;-76
2023/11/11 00:09:23;;;;;;;4.25;1.25;;;8.20;99.90;;;;;;4936894;28;20043;-77
2023/11/11 00:12:09;;;;;;;4.97;1.00;;;8.20;99.90;;;;;;4937947;28;20164;-76
2023/11/11 00:14:55;;;;;;;3.63;1.10;;;8.20;99.90;;;;;;4936905;28;20103;-77
2023/11/11 00:17:41;;;;;;;2.97;1.13;;;8.20;99.90;;;;;;4963659;28;20049;-76
2023/11/11 00:20:27;;;;;;;6.07;1.90;;;8.20;99.90;;;;;;4950418;28;20431;-77
2023/11/11 00:23:14;;;;;;;5.65;1.23;;;8.20;99.90;;;;;;4921140;29;20057;-77
2023/11/11 00:26:00;;;;;;;5.13;1.50;;;8.20;99.90;;;;;;4918767;28;20075;-76
2023/11/11 00:28:47;;;;;;;6.30;1.40;;;8.10;99.90;;;;;;4932388;29;20758;-77
2023/11/11 00:31:35;;;;;;;5.23;1.13;;;8.10;99.90;;;;;;4947413;29;20042;-77
2023/11/11 00:34:21;;;;;;;4.50;1.20;;;8.10;99.90;;;;;;4961225;28;20039;-77
2023/11/11 00:37:08;;;;;;;6.03;1.60;;;8.10;99.90;;;;;;4950342;28;20075;-77
2023/11/11 00:39:55;;;;;;;5.45;1.58;;;8.10;99.90;;;;;;4976436;28;20058;-76
2023/11/11 00:42:41;;;;;;;3.67;1.57;;;8.10;99.90;;;;;;4938982;28;20631;-77
2023/11/11 00:45:28;;;;;;;5.30;1.40;;;8.10;99.90;;;;;;4937838;28;20471;-77
2023/11/11 00:48:14;;;;;;;5.45;1.20;;;8.00;99.90;;;;;;4936884;28;20042;-76
2023/11/11 00:51:00;;;;;;;8.07;1.77;;;8.00;99.90;;;;;;4937579;29;20039;-76
2023/11/11 00:53:47;;;;;;;3.60;1.15;;;8.00;99.90;;;;;;4950050;28;20483;-76
2023/11/11 00:56:33;;;;;;;5.55;1.40;;;8.00;99.90;;;;;;4948548;28;20375;-77
2023/11/11 00:59:19;;;;;;;8.32;1.70;;;8.00;99.90;;;;;;4925194;29;20413;-76
2023/11/11 01:02:05;;;;;;;4.72;1.10;;;8.00;99.90;;;;;;4944180;29;20395;-76
2023/11/11 01:04:51;;;;;;;6.32;1.20;;;8.10;99.90;;;;;;4945004;29;20043;-77
2023/11/11 01:07:37;;;;;;;4.57;1.10;;;8.10;99.90;;;;;;4944728;29;20364;-77
2023/11/11 01:10:24;;;;;;;6.03;1.17;;;8.10;99.90;;;;;;4936636;29;20069;-77
2023/11/11 01:13:11;;;;;;;8.88;1.50;;;8.10;99.90;;;;;;4952997;29;20707;-77
2023/11/11 01:15:59;;;;;;;8.55;1.17;;;8.10;99.90;;;;;;4919952;28;20072;-76
2023/11/11 01:18:46;;;;;;;8.20;1.40;;;8.20;99.90;;;;;;4934175;29;20071;-76
2023/11/11 01:21:33;;;;;;;5.88;1.50;;;8.20;99.90;;;;;;4929595;29;20051;-76
2023/11/11 01:24:19;;;;;;;5.90;1.60;;;8.20;99.90;;;;;;4932695;28;20719;-76
2023/11/11 01:27:05;;;;;;;6.93;1.50;;;8.20;99.90;;;;;;4949635;28;20203;-77
2023/11/11 01:29:51;;;;;;;5.75;1.23;;;8.30;99.90;;;;;;4937106;28;20431;-76
2023/11/11 01:32:37;;;;;;;6.18;1.92;;;8.20;99.90;;;;;;4949727;28;20474;-77
2023/11/11 01:35:24;;;;;;;3.85;1.25;;;8.30;99.90;;;;;;4946765;28;20142;-77
2023/11/11 01:38:10;;;;;;;6.47;1.50;;;8.30;99.90;;;;;;4944820;29;20484;-76
2023/11/11 01:40:56;;;;;;;6.13;1.65;;;8.30;99.90;;;;;;4934588;29;20396;-76
2023/11/11 01:43:42;;;;;;;6.38;1.35;;;8.30;99.90;;;;;;4948054;29;20547;-77
2023/11/11 01:46:28;;;;;;;8.45;1.63;;;8.30;99.90;;;;;;4935260;28;20121;-77
2023/11/11 01:49:15;;;;;;;6.93;1.60;;;8.30;99.90;;;;;;4921884;29;20122;-76
2023/11/11 01:52:01;;;;;;;5.32;1.35;;;8.30;99.90;;;;;;4920842;29;20414;-77
2023/11/11 01:54:48;;;;;;;4.63;1.55;;;8.30;99.90;;;;;;4935548;28;20043;-77
2023/11/11 01:57:34;;;;;;;5.75;1.42;;;8.30;99.90;;;;;;4939271;28;20427;-77
2023/11/11 02:00:20;;;;;;;6.88;1.08;;;8.30;99.90;;;;;;4936283;28;20039;-77
2023/11/11 02:03:06;;;;;;;6.65;1.50;;;8.30;99.90;;;;;;4934143;28;20038;-77
2023/11/11 02:05:54;;;;;;;6.05;1.63;;;8.30;99.90;;;;;;4947238;29;20086;-77
2023/11/11 02:08:40;;;;;;;8.43;1.45;;;8.30;99.90;;;;;;4924877;28;20081;-77
2023/11/11 02:11:26;;;;;;;5.20;1.10;;;8.30;99.90;;;;;;4952831;28;20387;-77
2023/11/11 02:14:12;;;;;;;7.32;1.17;;;8.30;99.90;;;;;;4939323;28;20070;-77
2023/11/11 02:16:58;;;;;;;6.05;1.27;;;8.40;99.90;;;;;;4952617;28;20070;-77
2023/11/11 02:19:44;;;;;;;7.97;1.40;;;8.30;99.90;;;;;;4939903;28;20050;-77
2023/11/11 02:22:30;;;;;;;9.55;1.65;;;8.30;99.90;;;;;;4937740;28;20081;-77
2023/11/11 02:25:18;;;;;;;3.90;0.95;;;8.30;99.90;;;;;;4952369;28;20049;-77
2023/11/11 02:28:06;;;;;;;5.10;1.60;;;8.30;99.90;;;;;;4943107;29;20040;-77
2023/11/11 02:30:52;;;;;;;4.18;1.17;;;8.30;99.90;;;;;;4960060;28;20045;-76
2023/11/11 02:33:38;;;;;;;6.40;1.52;;;8.20;99.90;;;;;;4941665;29;20114;-77
2023/11/11 02:36:24;;;;;;;8.60;1.75;;;8.20;99.90;;;;;;4945123;28;20053;-77
2023/11/11 02:39:13;;;;;;;10.35;1.60;;;8.20;99.90;;;;;;4933894;29;20050;-77
2023/11/11 02:42:00;;;;;;;8.43;1.58;;;8.20;99.90;;;;;;4931457;28;20562;-77
2023/11/11 02:44:47;;;;;;;7.15;1.50;;;8.20;99.90;;;;;;4948768;28;20057;-76
2023/11/11 02:47:35;;;;;;;3.97;1.35;;;8.20;99.90;;;;;;4964937;28;20043;-76
2023/11/11 02:50:23;;;;;;;8.00;1.75;;;8.10;99.90;;;;;;4931467;29;20061;-77
2023/11/11 02:53:11;;;;;;;6.25;1.30;;;8.10;99.90;;;;;;4946527;28;20537;-77
2023/11/11 02:55:58;;;;;;;6.25;1.40;;;8.20;99.90;;;;;;4966006;28;20035;-76
2023/11/11 02:58:45;;;;;;;4.60;1.30;;;8.20;99.90;;;;;;4928700;28;20424;-76
2023/11/11 03:01:38;;;;;;;5.93;1.10;;;8.20;99.90;;;;;;4938727;28;20038;-76
2023/11/11 03:04:25;;;;;;;4.30;1.30;;;8.20;99.90;;;;;;4952241;28;20310;-76
2023/11/11 03:07:13;;;;;;;5.85;1.75;;;8.10;99.90;;;;;;4965387;28;20042;-76
2023/11/11 03:10:06;;;;;;;5.80;1.60;;;8.10;99.90;;;;;;4939683;28;20371;-77
2023/11/11 03:12:52;;;;;;;5.35;1.35;;;8.10;99.90;;;;;;4935792;29;20164;-77
2023/11/11 03:15:38;;;;;;;6.10;1.55;;;8.00;99.90;;;;;;4920239;29;20047;-77
2023/11/11 03:18:25;;;;;;;9.40;1.83;;;8.00;99.90;;;;;;4945214;29;20122;-76
2023/11/11 03:21:22;;;;;;;4.43;1.48;;;8.00;99.90;;;;;;4934638;28;20487;-77
2023/11/11 03:24:09;;;;;;;7.13;1.60;;;8.00;99.90;;;;;;4951637;28;20050;-77
2023/11/11 03:26:57;;;;;;;6.65;1.70;;;8.00;99.90;;;;;;4943129;29;20074;-76
2023/11/11 03:29:44;;;;;;;6.82;1.23;;;7.90;99.90;;;;;;4933256;29;20062;-77
2023/11/11 03:32:31;;;;;;;7.17;1.50;;;7.90;99.90;;;;;;4946141;28;20035;-77
2023/11/11 03:35:18;;;;;;;6.47;1.43;;;7.90;99.90;;;;;;4923078;28;20483;-77
2023/11/11 03:38:09;;;;;;;5.07;1.45;;;7.90;99.90;;;;;;4951511;28;20125;-77
2023/11/11 03:40:57;;;;;;;5.22;1.50;;;7.90;99.90;;;;;;4951559;28;20408;-77
2023/11/11 03:43:44;;;;;;;;;;;7.90;99.90;;;;;;4951675;29;20101;-76
2023/11/11 03:46:32;;;;;;;4.90;1.65;;;7.90;99.90;;;;;;4959423;28;19914;-77
2023/11/11 03:49:19;;;;;;;5.78;1.45;;;8.00;99.90;;;;;;4932138;29;20046;-78
2023/11/11 03:52:05;;;;;;;6.25;1.50;;;8.00;99.90;;;;;;4932006;29;20035;-76
2023/11/11 03:54:51;;;;;;;8.85;1.55;;;8.00;99.90;;;;;;4924695;28;20039;-77
2023/11/11 03:57:37;;;;;;;5.30;1.73;;;8.00;99.90;;;;;;4930836;29;20118;-77
2023/11/11 04:00:24;;;;;;;4.97;1.55;;;8.00;99.90;;;;;;4944917;28;20042;-76
2023/11/11 04:03:12;;;;;;;4.20;1.20;;;8.00;99.90;;;;;;4944746;29;20047;-77
2023/11/11 04:05:59;;;;;;;6.50;1.50;;;8.00;99.90;;;;;;4949675;28;20428;-77
2023/11/11 04:08:47;;;;;;;8.33;1.50;;;8.00;99.90;;;;;;4937565;28;20105;-77
2023/11/11 04:11:34;;;;;;;4.45;1.42;;;8.00;99.90;;;;;;4948525;28;20359;-77
2023/11/11 04:14:23;;;;;;;3.45;1.10;;;8.00;99.90;;;;;;4931771;29;20122;-76
2023/11/11 04:17:09;;;;;;;5.43;1.10;;;8.10;99.90;;;;;;4950517;28;20097;-78
2023/11/11 04:19:56;;;;;;;5.85;1.80;;;8.10;99.90;;;;;;4939813;28;20043;-79
2023/11/11 04:22:43;;;;;;;9.27;2.17;;;8.10;99.90;;;;;;4937149;28;20175;-79
2023/11/11 04:25:31;;;;;;;7.22;1.70;;;8.10;99.90;;;;;;4939943;28;20050;-78
2023/11/11 04:28:19;;;;;;;3.67;1.20;;;8.10;99.90;;;;;;4956981;28;20070;-78
2023/11/11 04:31:05;;;;;;;4.47;1.30;;;8.10;99.90;;;;;;4958631;28;20085;-79
2023/11/11 04:33:53;;;;;;;4.78;1.50;;;8.10;99.90;;;;;;4949450;28;20042;-78
2023/11/11 04:36:39;;;;;;;6.13;1.50;;;8.10;99.90;;;;;;4930383;29;20039;-78
2023/11/11 04:39:25;;;;;;;6.93;1.60;;;8.00;99.90;;;;;;4945809;28;20047;-78
2023/11/11 04:42:18;;;;;;;5.15;1.42;;;8.00;99.90;;;;;;4936329;28;20438;-78
2023/11/11 04:45:06;;;;;;;5.03;1.48;;;8.00;99.90;;;;;;4950011;28;20883;-78
2023/11/11 04:47:53;;;;;;;7.55;3.05;;;8.00;99.90;;;;;;4936381;28;20050;-78
2023/11/11 04:50:40;;;;;;;9.73;4.00;;;8.00;99.90;;;;;;4939603;29;20070;-78
2023/11/11 04:53:28;;;;;;;6.22;1.70;;;8.00;99.90;;;;;;4931427;29;20349;-79
2023/11/11 04:56:15;;;;;;;8.63;1.50;;;8.00;99.90;;;;;;4935217;28;20198;-78
2023/11/11 04:59:03;;;;;;;7.00;1.63;;;8.00;99.90;;;;;;4930742;29;20129;-79
2023/11/11 05:01:53;;;;;;;7.18;1.35;;;8.00;99.90;;;;;;4916936;29;20067;-79
2023/11/11 05:04:40;;;;;;;7.40;1.52;;;8.00;99.90;;;;;;4918790;28;20066;-79
2023/11/11 05:07:27;;;;;;;4.10;1.40;;;8.00;99.90;;;;;;4943543;29;20046;-78
2023/11/11 05:10:17;;;;;;;6.45;1.42;;;8.00;99.90;;;;;;4916455;29;20054;-79
2023/11/11 05:13:08;;;;;;;5.15;1.40;;;8.00;99.90;;;;;;4929490;29;20545;-79
2023/11/11 05:16:03;;;;;;;6.07;1.77;;;7.90;99.90;;;;;;4960854;28;20046;-76
2023/11/11 05:18:52;;;;;;;8.02;3.65;;;8.00;99.90;;;;;;4936550;28;20070;-77
2023/11/11 05:21:38;;;;;;;12.45;2.85;;;8.00;99.90;;;;;;4935763;28;20408;-77
2023/11/11 05:24:25;;;;;;;6.40;1.73;;;8.00;99.90;;;;;;4948664;28;20074;-77
2023/11/11 05:27:14;;;;;;;5.43;1.75;;;7.90;99.90;;;;;;4962375;28;20034;-76
2023/11/11 05:30:01;;;;;;;7.22;2.13;;;7.90;99.90;;;;;;4923244;29;20058;-77
2023/11/11 05:32:49;;;;;;;5.65;1.50;;;8.00;99.90;;;;;;4941984;29;20035;-77
2023/11/11 05:35:36;;;;;;;5.10;1.50;;;8.00;99.90;;;;;;4917737;29;20035;-76
2023/11/11 05:38:23;;;;;;;6.28;1.67;;;8.00;99.90;;;;;;4946227;28;20271;-77
2023/11/11 05:41:10;;;;;;;6.68;1.85;;;8.00;99.90;;;;;;4961575;28;20047;-76
2023/11/11 05:43:58;;;;;;;5.27;1.87;;;8.00;99.90;;;;;;4948558;28;20046;-77
2023/11/11 05:46:45;;;;;;;3.67;2.00;;;8.00;99.90;;;;;;4947826;28;20046;-77
2023/11/11 05:49:32;;;;;;;6.25;1.70;;;7.90;99.90;;;;;;4948329;28;20130;-77
2023/11/11 05:52:19;;;;;;;6.07;1.40;;;7.90;99.90;;;;;;4942586;29;20662;-76
2023/11/11 05:55:08;;;;;;;8.37;2.10;;;7.80;99.90;;;;;;4942249;29;20054;-77
2023/11/11 05:57:55;;;;;;;6.32;1.77;;;7.80;99.90;;;;;;4955849;28;20507;-80
2023/11/11 06:00:41;;;;;;;6.35;2.53;;;7.80;99.90;;;;;;4936991;28;20053;-77
2023/11/11 06:03:31;;;;;;;7.35;2.22;;;7.80;99.90;;;;;;4937003;28;20053;-75
2023/11/11 06:06:18;;;;;;;7.68;1.80;;;7.80;99.90;;;;;;4936523;28;20174;-75
2023/11/11 06:09:05;;;;;;;6.75;1.50;;;7.60;99.90;;;;;;4958200;28;20047;-75
2023/11/11 06:11:53;;;;;;;5.78;1.73;;;7.60;99.90;;;;;;4933075;28;20039;-75
2023/11/11 06:14:40;;;;;;;5.53;1.60;;;7.40;99.90;;;;;;4945638;28;20348;-75
2023/11/11 06:17:28;;;;;;;4.43;1.27;;;7.40;99.90;;;;;;4942554;29;20302;-75
2023/11/11 06:20:15;;;;;;;10.05;1.55;;;7.40;99.90;;;;;;4956645;29;20519;-75
2023/11/11 06:23:02;;;;;;;3.55;1.33;;;7.30;99.90;;;;;;4916799;29;20495;-75
2023/11/11 06:25:50;;;;;;;4.80;1.50;;;7.30;99.90;;;;;;4944175;29;20071;-75
2023/11/11 06:28:37;;;;;;;5.07;1.45;;;7.20;99.90;;;;;;4934245;29;20271;-76
2023/11/11 06:31:24;;;;;;;4.57;1.10;;;7.30;99.90;;;;;;4933554;29;20035;-75
2023/11/11 06:34:12;;;;;;;8.13;1.63;;;7.30;99.90;;;;;;4934330;29;20047;-76
2023/11/11 06:36:58;;;;;;;3.25;1.20;;;7.30;99.90;;;;;;4956989;29;20043;-76
2023/11/11 06:39:45;;;;;;;4.35;1.33;;;7.40;99.90;;;;;;4946217;29;20086;-76
2023/11/11 06:42:33;;;;;;;4.18;1.40;;;7.40;99.90;;;;;;4951766;28;20109;-76
2023/11/11 06:45:20;;;;;;;;;;;7.30;99.90;;;;;;4950941;28;20541;-76
2023/11/11 06:48:07;;;;;;;3.07;1.43;;;7.20;99.90;;;;;;4945495;29;19914;-76
2023/11/11 06:50:54;;;;;;;3.27;1.47;;;7.10;99.90;;;;;;4933119;29;20282;-76
2023/11/11 06:53:42;;;;;;;6.60;1.37;;;7.10;99.90;;;;;;4934172;28;20034;-76
2023/11/11 06:56:29;;;;;;;6.37;1.50;;;7.10;99.90;;;;;;4951416;28;20035;-77
2023/11/11 06:59:16;;;;;;;2.85;1.27;;;7.00;99.90;;;;;;4959692;28;20309;-76
2023/11/11 07:02:04;;;;;;;4.03;1.23;;;7.00;99.90;;;;;;4939036;28;20398;-76
2023/11/11 07:04:54;;;;;;;3.75;1.10;;;6.90;99.90;;;;;;4935979;29;20043;-76
2023/11/11 07:07:41;;;;;;;1.77;1.00;;;6.90;99.90;;;;;;4931802;29;20036;-76
2023/11/11 07:10:33;;;;;;;2.37;0.70;;;6.90;99.90;;;;;;4933726;29;20400;-75
2023/11/11 07:13:21;;;;;;;3.08;0.80;;;6.90;99.90;;;;;;4933316;29;20172;-76
2023/11/11 07:16:07;;;;;;;2.90;1.00;;;6.90;99.90;;;;;;4964386;28;20039;-76
2023/11/11 07:18:54;;;;;;;1.95;0.80;;;6.90;99.90;;;;;;4933586;29;20428;-76
2023/11/11 07:21:42;;;;;;;2.55;0.80;;;7.00;99.90;;;;;;4924723;28;20055;-76
2023/11/11 07:24:30;;;;;;;3.92;0.73;;;7.00;99.90;;;;;;4951388;28;20564;-75
2023/11/11 07:27:17;;;;;;;3.35;0.85;;;7.00;99.90;;;;;;4948659;28;21256;-75
2023/11/11 07:30:09;;;;;;;2.50;0.82;;;7.00;99.90;;;;;;4936808;29;20075;-76
2023/11/11 07:32:58;;;;;;;1.42;0.90;;;7.00;99.90;;;;;;4945281;29;20091;-76
2023/11/11 07:35:46;;;;;;;2.00;0.75;;;7.00;99.90;;;;;;4932521;28;20043;-76
2023/11/11 07:38:33;;;;;;;1.83;0.90;;;6.90;99.90;;;;;;4932170;29;20039;-76
2023/11/11 07:41:20;;;;;;;2.67;0.80;;;6.90;99.90;;;;;;4931635;29;20051;-75
2023/11/11 07:44:09;;;;;;;1.47;0.90;;;7.00;99.90;;;;;;4931094;29;20084;-75
2023/11/11 07:46:56;;;;;;;1.50;0.75;;;6.90;99.90;;;;;;4944279;29;20043;-76
2023/11/11 07:49:43;;;;;;;1.10;0.70;;;6.90;99.90;;;;;;4918965;29;20039;-76
2023/11/11 07:52:31;;;;;;;2.03;0.60;;;6.90;99.90;;;;;;4933171;29;20035;-75
2023/11/11 07:55:18;;;;;;;1.20;0.63;;;6.90;99.90;;;;;;4918826;29;20043;-76
2023/11/11 07:58:05;;;;;;;1.90;0.60;;;7.00;99.90;;;;;;4931635;29;20090;-76
2023/11/11 08:00:51;;;;;;;3.60;0.80;;;7.00;99.90;;;;;;4921280;28;20063;-77
2023/11/11 08:03:37;;;;;;;2.13;0.80;;;7.20;99.90;;;;;;4939014;28;20407;-77
2023/11/11 08:06:25;;;;;;;2.05;1.10;;;7.20;99.90;;;;;;4950029;28;20460;-77
2023/11/11 08:09:12;;;;;;;3.38;1.00;;;7.30;99.90;;;;;;4948542;28;20039;-76
2023/11/11 08:12:00;;;;;;;2.53;1.08;;;7.40;99.90;;;;;;4946354;28;20058;-77
2023/11/11 08:14:47;;;;;;;2.00;0.90;;;7.50;99.90;;;;;;4945907;28;20185;-77
2023/11/11 08:17:34;;;;;;;4.17;1.00;;;7.60;99.90;;;;;;4918502;28;20279;-77
2023/11/11 08:20:22;;;;;;;3.00;1.08;;;7.60;99.90;;;;;;4931172;29;20031;-76
2023/11/11 08:23:10;;;;;;;2.00;1.10;;;7.60;99.90;;;;;;4931358;29;20039;-77
2023/11/11 08:25:57;;;;;;;1.85;0.75;;;7.50;99.90;;;;;;4931838;29;20114;-77
2023/11/11 08:28:44;;;;;;;2.03;0.90;;;7.60;99.90;;;;;;4943675;29;20047;-77
2023/11/11 08:31:32;;;;;;;2.87;1.27;;;7.60;99.90;;;;;;4943731;29;20062;-77
2023/11/11 08:34:19;;;;;;;1.40;0.90;;;7.60;99.90;;;;;;4930848;29;20039;-77
2023/11/11 08:37:05;;;;;;;2.83;1.10;;;7.60;99.90;;;;;;4930418;29;20378;-77
2023/11/11 08:39:51;;;;;;;4.88;0.90;;;7.60;99.90;;;;;;4931244;29;20476;-77
2023/11/11 08:42:39;;;;;;;2.03;1.30;;;7.60;99.90;;;;;;4933045;29;20055;-77
2023/11/11 08:45:27;;;;;;;2.17;0.85;;;7.60;99.90;;;;;;4931224;29;20039;-77
2023/11/11 08:48:14;;;;;;;;;;;7.60;99.90;;;;;;4920790;29;20608;-77
2023/11/11 08:51:02;;;;;;;4.25;1.80;;;7.60;99.90;;;;;;4942465;28;19914;-77
2023/11/11 08:53:49;;;;;;;4.25;1.60;;;7.60;99.90;;;;;;4948840;28;21118;-77
2023/11/11 08:56:36;;;;;;;2.33;1.42;;;7.50;99.90;;;;;;4944605;29;20066;-76
2023/11/11 08:59:24;;;;;;;2.85;1.60;;;7.50;99.90;;;;;;4930104;29;20110;-76
2023/11/11 09:02:11;;;;;;;2.97;1.85;;;7.40;99.90;;;;;;4930067;29;20046;-76
2023/11/11 09:04:58;;;;;;;3.47;2.07;;;7.50;99.90;;;;;;4943644;29;20054;-76
2023/11/11 09:07:46;;;;;;;4.32;2.35;;;7.50;99.90;;;;;;4939935;28;20042;-76
2023/11/11 09:10:33;;;;;;;5.68;2.78;;;7.50;99.90;;;;;;4951680;28;20089;-76
2023/11/11 09:13:23;;;;;;;5.03;2.92;;;7.50;99.90;;;;;;4930809;28;20074;-77
2023/11/11 09:16:10;;;;;;;5.95;2.90;;;7.60;99.90;;;;;;4940645;28;20345;-77
2023/11/11 09:18:58;;;;;;;4.05;2.42;;;7.70;99.90;;;;;;4962405;28;20039;-76
2023/11/11 09:21:45;;;;;;;4.38;2.42;;;7.80;99.90;;;;;;4962205;28;20105;-77
2023/11/11 09:24:33;;;;;;;4.57;2.90;;;7.90;99.90;;;;;;4963046;28;20109;-76
2023/11/11 09:27:20;;;;;;;5.38;3.42;;;7.80;99.90;;;;;;4949301;28;20047;-77
2023/11/11 09:30:08;;;;;;;4.80;2.87;;;8.00;99.90;;;;;;4937810;28;20035;-76
2023/11/11 09:32:58;;;;;;;5.75;3.50;;;8.00;99.90;;;;;;4936190;28;20038;-76
2023/11/11 09:35:46;;;;;;;9.02;3.78;;;8.10;99.90;;;;;;4943295;28;20043;-76
2023/11/11 09:38:33;;;;;;;6.45;4.78;;;8.10;99.90;;;;;;4949908;28;20502;-76
2023/11/11 09:41:21;;;;;;;6.37;4.73;;;8.10;99.90;;;;;;4937726;28;20069;-76
2023/11/11 09:44:08;;;;;;;6.88;4.82;;;7.90;99.90;;;;;;4940750;28;20038;-74
2023/11/11 09:46:56;;;;;;;14.02;4.90;;;7.80;99.90;;;;;;4946643;28;20153;-76
2023/11/11 09:49:44;;;;;;;;;;;7.70;99.90;;;;;;4930494;29;20391;-76
2023/11/11 09:52:31;;;;;;;8.80;5.22;;;7.70;99.90;;;;;;4944098;28;19910;-75
2023/11/11 09:55:17;;;;;;;9.02;5.55;;;7.70;99.90;;;;;;4959440;28;20129;-75
2023/11/11 09:58:05;;;;;;;9.70;5.38;;;7.80;99.90;;;;;;4961941;28;20101;-75
2023/11/11 10:00:51;;;;;;;8.93;4.93;;;7.70;99.90;;;;;;4937716;28;20202;-75
2023/11/11 10:03:39;;;;;;;8.85;5.15;;;7.60;99.90;;;;;;4942008;29;20472;-75
2023/11/11 10:06:27;;;;;;;7.80;4.45;;;7.60;99.90;;;;;;4951337;28;20340;-76
2023/11/11 10:09:18;;;;;;;6.88;3.92;;;7.60;99.90;;;;;;4952252;28;20039;-76
2023/11/11 10:12:05;;;;;;;6.78;3.75;;;7.60;99.90;;;;;;4953346;28;20047;-75
2023/11/11 10:14:54;;;;;;;6.70;3.58;;;7.60;99.90;;;;;;4973024;28;20049;-78
2023/11/11 10:17:45;;;;;;;5.53;3.70;;;7.50;99.90;;;;;;4946382;28;20042;-78
2023/11/11 10:20:31;;;;;;;6.93;3.58;;;7.60;99.90;;;;;;4952754;28;20060;-76
2023/11/11 10:23:18;;;;;;;6.43;3.22;;;7.60;99.90;;;;;;4964789;28;20039;-76
2023/11/11 10:26:07;;;;;;;5.57;3.10;;;7.60;99.90;;;;;;4938754;28;20069;-78
2023/11/11 10:28:56;;;;;;;5.95;2.45;;;7.60;99.90;;;;;;4953060;28;20062;-77
2023/11/11 10:31:47;;;;;;;7.93;2.53;;;7.50;99.90;;;;;;4939658;28;20364;-77
2023/11/11 10:34:38;;;;;;;7.10;2.55;;;7.50;99.90;;;;;;4952927;28;20150;-77
2023/11/11 10:37:24;;;;;;;3.95;2.10;;;7.50;99.90;;;;;;4939998;28;20128;-77
2023/11/11 10:40:17;;;;;;;4.95;1.80;;;7.50;99.90;;;;;;4963939;28;20047;-77
2023/11/11 10:43:03;;;;;;;3.85;1.40;;;7.50;99.90;;;;;;4952221;28;20042;-77
2023/11/11 10:45:49;;;;;;;7.05;1.75;;;7.50;99.90;;;;;;4939108;28;20046;-77
2023/11/11 10:48:37;;;;;;;7.65;1.83;;;7.50;99.90;;;;;;4961361;28;20035;-77
2023/11/11 10:51:24;;;;;;;4.32;1.92;;;7.50;99.90;;;;;;4918970;29;20094;-78
2023/11/11 10:54:10;;;;;;;4.40;2.00;;;7.50;99.90;;;;;;4939629;28;20138;-77
2023/11/11 10:56:58;;;;;;;6.40;1.70;;;7.50;99.90;;;;;;4940360;29;20050;-77
2023/11/11 10:59:46;;;;;;;;;;;7.50;99.90;;;;;;4938509;28;20567;-77
2023/11/11 11:02:33;;;;;;;4.88;1.30;;;7.40;99.90;;;;;;4956682;28;20386;-78
2023/11/11 11:05:41;;;;;;;2.88;1.50;;;7.40;99.90;;;;;;4938713;28;20047;-76
2023/11/11 11:08:48;;;;;;;4.93;1.70;;;7.40;99.90;;;;;;4947733;29;20039;-76
2023/11/11 11:12:07;;;;;;;2.35;1.50;;;7.50;99.90;;;;;;4942067;29;20031;-77
2023/11/11 11:15:00;;;;;;;4.63;1.30;;;7.50;99.90;;;;;;4942027;29;20039;-77
2023/11/11 11:17:51;;;;;;;2.63;1.10;;;7.60;99.90;;;;;;4932975;29;20032;-77
2023/11/11 11:20:41;;;;;;;4.78;1.48;;;7.70;99.90;;;;;;4913028;29;20389;-77
2023/11/11 11:23:37;;;;;;;6.35;1.50;;;7.60;99.90;;;;;;4913595;29;20118;-77
2023/11/11 11:26:29;;;;;;;3.67;1.42;;;7.60;99.90;;;;;;4926196;29;20063;-77
2023/11/11 11:29:17;;;;;;;3.90;1.55;;;7.60;99.90;;;;;;4912242;29;20051;-77
2023/11/11 11:32:10;;;;;;;4.82;1.60;;;7.60;99.90;;;;;;4918574;29;20098;-78
2023/11/11 11:35:25;;;;;;;5.30;1.63;;;7.70;99.90;;;;;;4925598;29;20046;-77
2023/11/11 11:38:11;;;;;;;3.08;1.25;;;7.70;99.90;;;;;;4925414;29;20043;-77
2023/11/11 11:41:21;;;;;;;5.05;1.40;;;7.70;99.90;;;;;;4914752;29;20061;-77
2023/11/11 11:44:09;;;;;;;2.80;1.40;;;7.70;99.90;;;;;;4924896;29;20039;-75
2023/11/11 11:46:57;;;;;;;5.00;1.30;;;7.70;99.90;;;;;;4900219;29;20502;-75
2023/11/11 11:49:49;;;;;;;3.05;1.25;;;7.70;99.90;;;;;;4927981;29;20094;-75
2023/11/11 11:52:37;;;;;;;2.55;1.00;;;7.70;99.90;;;;;;4958888;29;20110;-80
2023/11/11 11:55:34;;;;;;;5.47;1.40;;;7.70;99.90;;;;;;4945475;29;20181;-76
2023/11/11 11:58:21;;;;;;;3.38;1.10;;;7.70;99.90;;;;;;4956525;29;20035;-75
2023/11/11 12:01:08;;;;;;;3.47;1.20;;;7.70;99.90;;;;;;4926962;29;20484;-76
2023/11/11 12:03:56;;;;;;;4.20;1.20;;;7.70;99.90;;;;;;4925049;29;20054;-76
2023/11/11 12:06:45;;;;;;;4.18;1.10;;;7.70;99.90;;;;;;4899097;29;20060;-76
2023/11/11 12:09:35;;;;;;;3.75;1.33;;;7.60;99.90;;;;;;4913400;29;20127;-76
2023/11/11 12:12:27;;;;;;;4.10;1.45;;;7.60;99.90;;;;;;4900884;29;20035;-76
2023/11/11 12:15:15;;;;;;;4.15;1.38;;;7.50;99.90;;;;;;4913538;29;20047;-76
2023/11/11 12:18:13;;;;;;;3.42;1.10;;;7.60;99.90;;;;;;4926159;29;20054;-76
2023/11/11 12:21:00;;;;;;;4.05;1.73;;;7.60;99.90;;;;;;4932598;29;20035;-77
2023/11/11 12:23:48;;;;;;;5.07;2.50;;;7.60;99.90;;;;;;4917915;29;20051;-76
2023/11/11 12:26:38;;;;;;;5.68;2.70;;;7.60;99.90;;;;;;4926689;29;20174;-78
2023/11/11 12:29:24;;;;;;;5.40;2.92;;;7.60;99.90;;;;;;4925045;29;20050;-77
2023/11/11 12:32:14;;;;;;;4.40;2.40;;;7.60;99.90;;;;;;4936788;29;20468;-77
2023/11/11 12:35:01;;;;;;;3.72;1.77;;;7.60;99.90;;;;;;4925929;29;20035;-77
2023/11/11 12:37:50;;;;;;;8.82;2.45;;;7.50;99.90;;;;;;4912949;29;20126;-77
2023/11/11 12:40:38;;;;;;;5.75;1.98;;;7.60;99.90;;;;;;4936191;29;20047;-76
2023/11/11 12:43:29;;;;;;;2.60;1.38;;;7.50;99.90;;;;;;4924511;29;20046;-77
2023/11/11 12:46:16;;;;;;;3.92;1.52;;;7.50;99.90;;;;;;4937745;29;20098;-77
2023/11/11 12:49:15;;;;;;;3.60;1.75;;;7.50;99.90;;;;;;4924774;29;20043;-77
2023/11/11 12:52:13;;;;;;;4.55;2.05;;;7.50;99.90;;;;;;4938703;29;20047;-77
2023/11/11 12:55:02;;;;;;;2.65;1.60;;;7.50;99.90;;;;;;4929301;29;20473;-77
2023/11/11 12:57:49;;;;;;;4.35;1.55;;;7.50;99.90;;;;;;4911925;29;20044;-77
2023/11/11 13:00:57;;;;;;;5.57;1.77;;;7.50;99.90;;;;;;4912279;29;20047;-77
2023/11/11 13:03:45;;;;;;;6.80;1.92;;;7.60;99.90;;;;;;4924917;29;20199;-77
2023/11/11 13:06:35;;;;;;;3.55;1.70;;;7.50;99.90;;;;;;4925990;29;20039;-76
2023/11/11 13:09:23;;;;;;;6.07;2.05;;;7.60;99.90;;;;;;4918856;29;20066;-77
2023/11/11 13:12:10;;;;;;;6.55;2.20;;;7.60;99.90;;;;;;4917315;29;20039;-76
2023/11/11 13:15:00;;;;;;;5.75;2.08;;;7.70;99.90;;;;;;4924435;29;20543;-77
2023/11/11 13:17:47;;;;;;;4.90;2.30;;;7.70;99.90;;;;;;4930738;29;20359;-77
2023/11/11 13:20:35;;;;;;;4.18;2.15;;;7.70;99.90;;;;;;4929336;29;20035;-77
2023/11/11 13:23:22;;;;;;;7.28;2.42;;;7.70;99.90;;;;;;4929337;29;20034;-77
2023/11/11 13:26:10;;;;;;;8.45;3.15;;;7.70;99.90;;;;;;4930435;29;20043;-77
2023/11/11 13:28:59;;;;;;;8.35;2.88;;;7.80;99.90;;;;;;4931794;29;20483;-77
2023/11/11 13:31:47;;;;;;;6.68;2.70;;;7.70;99.90;;;;;;4924271;29;20047;-77
2023/11/11 13:34:35;;;;;;;8.43;2.65;;;7.70;99.90;;;;;;4898376;29;20040;-77
2023/11/11 13:37:21;;;;;;;;;;;7.80;99.90;;;;;;4927379;29;20062;-78
2023/11/11 13:40:28;;;;;;;7.60;2.30;;;7.80;99.90;;;;;;4929391;29;20004;-77
2023/11/11 13:43:16;;;;;;;7.17;2.27;;;7.80;99.90;;;;;;4916662;29;20132;-77
2023/11/11 13:46:04;;;;;;;4.95;2.45;;;7.80;99.90;;;;;;4914960;29;20295;-77
2023/11/11 13:48:56;;;;;;;5.50;2.20;;;7.90;99.90;;;;;;4956571;29;20031;-77
2023/11/11 13:51:45;;;;;;;5.05;2.25;;;7.90;99.90;;;;;;4931719;29;20498;-77
2023/11/11 13:54:32;;;;;;;5.93;2.10;;;7.80;99.90;;;;;;4917462;29;20592;-77
2023/11/11 13:57:20;;;;;;;6.70;2.30;;;7.70;99.90;;;;;;4928861;29;20098;-77
2023/11/11 14:00:14;;;;;;;5.65;1.70;;;7.70;99.90;;;;;;4941452;29;20127;-77
2023/11/11 14:03:10;;;;;;;4.80;1.95;;;7.60;99.90;;;;;;4941551;29;20507;-76
2023/11/11 14:05:58;;;;;;;5.13;2.17;;;7.50;99.90;;;;;;4915602;29;20040;-76
2023/11/11 14:08:44;;;;;;;7.05;2.35;;;7.50;99.90;;;;;;4928471;29;20071;-76
2023/11/11 14:11:32;;;;;;;5.38;2.00;;;7.40;99.90;;;;;;4929578;29;20039;-75
2023/11/11 14:14:19;;;;;;;3.30;1.73;;;7.40;99.90;;;;;;4910493;29;20032;-76
2023/11/11 14:17:06;;;;;;;3.60;2.13;;;7.40;99.90;;;;;;4924865;29;20046;-77
2023/11/11 14:19:54;;;;;;;4.35;2.00;;;7.30;99.90;;;;;;4911307;29;20043;-76
2023/11/11 14:22:42;;;;;;;5.18;2.13;;;7.30;99.90;;;;;;4914592;29;20527;-75
2023/11/11 14:25:28;;;;;;;4.40;1.88;;;7.30;99.90;;;;;;4923974;29;20126;-75
2023/11/11 14:28:16;;;;;;;3.33;2.20;;;7.30;99.90;;;;;;4924391;29;20036;-76
2023/11/11 14:31:03;;;;;;;7.03;2.30;;;7.30;99.90;;;;;;4921303;29;20178;-75
2023/11/11 14:33:50;;;;;;;5.67;2.57;;;7.40;99.90;;;;;;4928802;29;20665;-75
2023/11/11 14:36:38;;;;;;;5.95;2.28;;;7.30;99.90;;;;;;4942831;29;20751;-75
2023/11/11 14:39:25;;;;;;;7.00;2.60;;;7.30;99.90;;;;;;4936787;29;20051;-75
2023/11/11 14:42:14;;;;;;;6.60;2.55;;;7.40;99.90;;;;;;4922135;29;20047;-76
2023/11/11 14:45:01;;;;;;;5.32;2.20;;;7.40;99.90;;;;;;4942978;28;20346;-75
2023/11/11 14:47:50;;;;;;;3.88;1.73;;;7.30;99.90;;;;;;4932193;29;20081;-75